Time;durP1;ratioP1;P1;durP2;ratioP2;P2;SDS_P1;SDS_P2;PMS_P1;PMS_P2;Temp;Humidity;BMP_temperature;BMP_pressure;BME280_temperature;BME280_humidity;BME280_pressure;Samples;Min_cycle;Max_cycle;Signal;HPM_P1;HPM_P2
2020/12/21 00:02:17;;;;;;;1.67;0.55;;;10.50;99.90;;;;;;4955044;28;20390;-78
2020/12/21 00:04:43;;;;;;;1.40;0.50;;;10.50;99.90;;;;;;4955678;28;20394;-78
2020/12/21 00:07:09;;;;;;;2.40;0.50;;;11.70;99.90;;;;;;4954694;29;20399;-80
2020/12/21 00:09:34;;;;;;;2.90;0.70;;;10.20;99.90;;;;;;4955678;28;20458;-80
2020/12/21 00:12:00;;;;;;;2.13;0.70;;;10.80;99.90;;;;;;4955972;28;20394;-79
2020/12/21 00:14:26;;;;;;;1.80;0.60;;;10.90;99.90;;;;;;4954953;28;20390;-79
2020/12/21 00:16:53;;;;;;;0.80;0.60;;;10.70;99.90;;;;;;4955836;28;20458;-79
2020/12/21 00:19:21;;;;;;;0.90;0.40;;;10.50;99.90;;;;;;4954736;29;20417;-79
2020/12/21 00:21:49;;;;;;;1.10;0.63;;;10.20;99.90;;;;;;4955766;29;20477;-79
2020/12/21 00:24:16;;;;;;;1.00;0.60;;;10.40;99.90;;;;;;4954796;28;20394;-79
2020/12/21 00:26:46;;;;;;;0.70;0.43;;;10.20;99.90;;;;;;4955494;28;20855;-77
2020/12/21 00:29:12;;;;;;;0.55;0.43;;;10.90;99.90;;;;;;4954559;28;20425;-77
2020/12/21 00:31:37;;;;;;;1.30;0.50;;;10.10;99.90;;;;;;4967857;28;20439;-77
2020/12/21 00:34:05;;;;;;;0.98;0.70;;;10.00;99.90;;;;;;4974697;28;20397;-78
2020/12/21 00:36:38;;;;;;;1.30;0.50;;;9.90;99.90;;;;;;4974122;28;20551;-78
2020/12/21 00:39:05;;;;;;;0.80;0.50;;;10.30;99.90;;;;;;4974632;28;20439;-78
2020/12/21 00:41:31;;;;;;;2.80;0.60;;;10.30;99.90;;;;;;4973754;28;20484;-77
2020/12/21 00:43:57;;;;;;;1.40;0.50;;;10.40;99.90;;;;;;4974918;28;20397;-78
2020/12/21 00:46:25;;;;;;;0.80;0.65;;;10.20;99.90;;;;;;4976319;28;20380;-78
2020/12/21 00:48:52;;;;;;;2.20;0.90;;;10.30;99.90;;;;;;4975921;28;20392;-77
2020/12/21 00:51:18;;;;;;;1.90;0.80;;;10.50;99.90;;;;;;4972369;28;20435;-78
2020/12/21 00:53:44;;;;;;;1.17;0.60;;;11.60;99.90;;;;;;4974512;28;20392;-78
2020/12/21 00:56:11;;;;;;;1.90;0.63;;;10.40;99.90;;;;;;4973446;28;20383;-77
2020/12/21 00:58:40;;;;;;;0.82;0.50;;;9.90;99.90;;;;;;4974879;28;20852;-78
2020/12/21 01:01:09;;;;;;;0.90;0.60;;;10.20;99.90;;;;;;4974316;28;20404;-77
2020/12/21 01:03:35;;;;;;;2.05;0.60;;;10.30;99.90;;;;;;4974807;28;20392;-78
2020/12/21 01:06:01;;;;;;;1.10;0.50;;;10.20;99.90;;;;;;4974391;28;20385;-79
2020/12/21 01:08:27;;;;;;;1.77;0.70;;;10.70;99.90;;;;;;4973607;28;20384;-78
2020/12/21 01:10:52;;;;;;;2.60;0.60;;;10.70;99.90;;;;;;4974495;28;20428;-78
2020/12/21 01:13:18;;;;;;;0.50;0.40;;;10.90;99.90;;;;;;4973464;28;20384;-78
2020/12/21 01:15:44;;;;;;;0.70;0.47;;;10.70;99.90;;;;;;4973984;28;20384;-77
2020/12/21 01:18:10;;;;;;;2.13;0.50;;;10.10;99.90;;;;;;4973583;28;20443;-78
2020/12/21 01:20:36;;;;;;;0.60;0.50;;;10.10;99.90;;;;;;4974163;28;20876;-78
2020/12/21 01:23:02;;;;;;;0.90;0.60;;;10.70;99.90;;;;;;4974102;28;20384;-77
2020/12/21 01:25:28;;;;;;;1.27;0.60;;;10.90;99.90;;;;;;4973344;28;20396;-78
2020/12/21 01:27:53;;;;;;;0.50;0.50;;;10.10;99.90;;;;;;4972505;28;20392;-78
2020/12/21 01:30:19;;;;;;;1.30;0.70;;;10.40;99.90;;;;;;4973072;28;20830;-77
2020/12/21 01:32:45;;;;;;;2.00;0.68;;;10.70;99.90;;;;;;4973900;28;20396;-77
2020/12/21 01:35:10;;;;;;;0.70;0.55;;;10.60;99.90;;;;;;4972657;28;21016;-77
2020/12/21 01:37:36;;;;;;;1.38;0.50;;;10.00;99.90;;;;;;4973001;28;20420;-78
2020/12/21 01:40:04;;;;;;;0.73;0.55;;;10.60;99.90;;;;;;4973846;28;20399;-79
2020/12/21 01:42:29;;;;;;;2.60;0.70;;;11.30;99.90;;;;;;4972718;28;20481;-78
2020/12/21 01:44:55;;;;;;;2.03;0.75;;;10.10;99.90;;;;;;4974103;28;20496;-78
2020/12/21 01:47:21;;;;;;;1.40;0.70;;;10.30;99.90;;;;;;4972659;28;20425;-78
2020/12/21 01:49:48;;;;;;;0.73;0.70;;;9.70;99.90;;;;;;4973421;28;20507;-78
2020/12/21 01:52:17;;;;;;;0.65;0.50;;;10.40;99.90;;;;;;4971308;28;20495;-78
2020/12/21 01:54:47;;;;;;;1.13;0.75;;;9.80;99.90;;;;;;4973386;28;20389;-78
2020/12/21 01:57:13;;;;;;;3.10;0.90;;;9.60;99.90;;;;;;4972610;28;20380;-78
2020/12/21 01:59:39;;;;;;;1.45;0.82;;;10.80;99.90;;;;;;4973427;28;20396;-78
2020/12/21 02:02:05;;;;;;;1.90;0.60;;;9.40;99.90;;;;;;4973059;28;20729;-78
2020/12/21 02:04:31;;;;;;;1.10;0.50;;;11.00;99.90;;;;;;4971908;28;20392;-78
2020/12/21 02:07:00;;;;;;;1.52;0.57;;;11.10;99.90;;;;;;4972639;28;20393;-78
2020/12/21 02:09:27;;;;;;;1.02;0.60;;;10.30;99.90;;;;;;4972413;28;20388;-78
2020/12/21 02:11:54;;;;;;;1.90;0.70;;;10.00;99.90;;;;;;4971976;28;20797;-78
2020/12/21 02:14:19;;;;;;;0.90;0.50;;;10.00;99.90;;;;;;4972131;28;20435;-78
2020/12/21 02:16:45;;;;;;;2.00;0.80;;;10.50;99.90;;;;;;4972461;28;20424;-78
2020/12/21 02:19:11;;;;;;;0.77;0.40;;;10.70;99.90;;;;;;4972676;28;20915;-78
2020/12/21 02:21:36;;;;;;;1.30;0.70;;;10.60;99.90;;;;;;4972088;28;20384;-78
2020/12/21 02:24:02;;;;;;;1.57;0.90;;;9.60;99.90;;;;;;4972682;28;20392;-78
2020/12/21 02:26:28;;;;;;;1.33;0.60;;;9.40;99.90;;;;;;4972050;28;20389;-78
2020/12/21 02:28:55;;;;;;;1.20;0.70;;;8.80;99.90;;;;;;4972395;28;20392;-78
2020/12/21 02:31:21;;;;;;;2.00;1.00;;;8.90;99.90;;;;;;4961102;28;20543;-78
2020/12/21 02:33:47;;;;;;;1.40;0.70;;;8.70;99.90;;;;;;4953219;29;20477;-78
2020/12/21 02:36:13;;;;;;;1.60;1.00;;;10.00;99.90;;;;;;4951464;29;21041;-78
2020/12/21 02:38:40;;;;;;;4.70;1.00;;;8.60;99.90;;;;;;4952824;29;20476;-78
2020/12/21 02:41:06;;;;;;;3.67;1.13;;;10.10;99.90;;;;;;4953086;29;20402;-78
2020/12/21 02:43:32;;;;;;;2.10;1.00;;;8.90;99.90;;;;;;4952070;29;20549;-78
2020/12/21 02:45:58;;;;;;;2.28;0.93;;;8.60;99.90;;;;;;4952937;29;20889;-78
2020/12/21 02:48:23;;;;;;;1.40;1.00;;;9.00;99.90;;;;;;4952011;29;20454;-78
2020/12/21 02:50:49;;;;;;;0.90;0.80;;;9.40;99.90;;;;;;4952587;29;20418;-78
2020/12/21 02:53:16;;;;;;;1.83;0.90;;;8.30;99.90;;;;;;4951904;29;20390;-78
2020/12/21 02:55:42;;;;;;;2.70;1.00;;;7.80;99.90;;;;;;4952943;29;20397;-78
2020/12/21 02:58:08;;;;;;;4.00;1.02;;;8.90;99.90;;;;;;4952910;29;20397;-78
2020/12/21 03:00:34;;;;;;;1.60;0.73;;;9.10;99.90;;;;;;4952117;29;20476;-78
2020/12/21 03:03:01;;;;;;;3.35;0.70;;;9.40;99.90;;;;;;4952604;28;20400;-78
2020/12/21 03:05:26;;;;;;;2.22;0.70;;;8.40;99.90;;;;;;4951969;28;20791;-78
2020/12/21 03:07:52;;;;;;;1.10;0.60;;;8.30;99.90;;;;;;4951366;29;20402;-78
2020/12/21 03:10:17;;;;;;;2.85;1.10;;;7.80;99.90;;;;;;4951508;28;20428;-78
2020/12/21 03:12:43;;;;;;;1.83;1.00;;;8.00;99.90;;;;;;4952729;29;20406;-78
2020/12/21 03:15:09;;;;;;;3.00;1.00;;;7.90;99.90;;;;;;4952936;29;20386;-78
2020/12/21 03:17:35;;;;;;;3.70;1.02;;;8.30;99.90;;;;;;4951908;29;20392;-78
2020/12/21 03:20:01;;;;;;;1.73;0.90;;;8.20;99.90;;;;;;4952310;28;20418;-79
2020/12/21 03:22:26;;;;;;;3.50;0.50;;;7.90;99.90;;;;;;4951711;28;20382;-79
2020/12/21 03:24:52;;;;;;;1.40;0.60;;;7.70;99.90;;;;;;4970082;28;20384;-79
2020/12/21 03:27:17;;;;;;;0.75;0.68;;;8.30;99.90;;;;;;4974989;28;20923;-79
2020/12/21 03:29:43;;;;;;;2.33;0.85;;;7.60;99.90;;;;;;4975896;28;20975;-79
2020/12/21 03:32:10;;;;;;;2.10;0.70;;;8.90;99.90;;;;;;4958917;28;20858;-79
2020/12/21 03:34:35;;;;;;;1.80;1.00;;;7.70;99.90;;;;;;4955552;28;20533;-79
2020/12/21 03:37:01;;;;;;;1.50;0.80;;;8.80;99.90;;;;;;4956001;28;20898;-79
2020/12/21 03:39:26;;;;;;;1.65;0.90;;;8.20;99.90;;;;;;4955409;28;20922;-79
2020/12/21 03:41:52;;;;;;;1.40;0.82;;;8.80;99.90;;;;;;4955965;28;20945;-79
2020/12/21 03:44:18;;;;;;;1.48;0.88;;;8.20;99.90;;;;;;4955617;28;20390;-79
2020/12/21 03:46:44;;;;;;;4.00;1.00;;;8.50;99.90;;;;;;4955881;28;20390;-79
2020/12/21 03:49:09;;;;;;;1.80;1.10;;;9.10;99.90;;;;;;4956037;28;20477;-79
2020/12/21 03:51:35;;;;;;;2.20;1.00;;;7.60;99.90;;;;;;4955222;28;20774;-79
2020/12/21 03:54:00;;;;;;;1.60;1.30;;;7.90;99.90;;;;;;4955940;28;20401;-79
2020/12/21 03:56:26;;;;;;;1.90;1.00;;;7.70;99.90;;;;;;4955368;29;20382;-80
2020/12/21 03:58:52;;;;;;;0.80;0.70;;;8.60;99.90;;;;;;4956018;28;20479;-80
2020/12/21 04:01:17;;;;;;;2.30;0.73;;;8.00;99.90;;;;;;4956436;28;20828;-79
2020/12/21 04:03:43;;;;;;;1.00;0.80;;;7.10;99.90;;;;;;4956622;28;20823;-79
2020/12/21 04:06:08;;;;;;;2.20;1.00;;;7.20;99.90;;;;;;4954403;29;20390;-78
2020/12/21 04:08:34;;;;;;;0.93;0.70;;;7.60;99.90;;;;;;4953761;29;20409;-79
2020/12/21 04:11:00;;;;;;;1.40;0.60;;;7.20;99.90;;;;;;4955535;28;20464;-77
2020/12/21 04:13:26;;;;;;;1.90;0.70;;;7.00;99.90;;;;;;4954727;28;20397;-77
2020/12/21 04:15:53;;;;;;;2.50;0.93;;;9.00;99.90;;;;;;4955523;28;20390;-77
2020/12/21 04:18:19;;;;;;;1.70;0.80;;;7.70;99.90;;;;;;4953954;29;20397;-79
2020/12/21 04:20:46;;;;;;;2.50;0.93;;;7.00;99.90;;;;;;4955816;28;20441;-78
2020/12/21 04:23:11;;;;;;;2.70;1.55;;;9.00;99.90;;;;;;4955578;28;20751;-78
2020/12/21 04:25:37;;;;;;;1.60;0.60;;;6.90;99.90;;;;;;4954603;29;20493;-78
2020/12/21 04:28:02;;;;;;;2.20;0.80;;;7.20;99.90;;;;;;4955476;28;20382;-78
2020/12/21 04:30:28;;;;;;;2.60;0.80;;;7.60;99.90;;;;;;4958143;28;20830;-78
2020/12/21 04:32:54;;;;;;;2.60;0.98;;;6.80;99.90;;;;;;4973574;28;20396;-78
2020/12/21 04:35:19;;;;;;;3.30;0.70;;;7.60;99.90;;;;;;4973720;28;20736;-77
2020/12/21 04:37:45;;;;;;;0.85;0.77;;;7.20;99.90;;;;;;4974032;28;20949;-78
2020/12/21 04:40:10;;;;;;;2.28;0.90;;;7.70;99.90;;;;;;4974040;28;20390;-78
2020/12/21 04:42:55;;;;;;;0.90;0.80;;;7.40;99.90;;;;;;4973478;28;20408;-78
2020/12/21 04:45:21;;;;;;;0.98;0.65;;;6.60;99.90;;;;;;4973824;28;20427;-78
2020/12/21 04:47:47;;;;;;;1.20;0.90;;;6.90;99.90;;;;;;4974165;28;20391;-78
2020/12/21 04:50:15;;;;;;;0.80;0.60;;;7.20;99.90;;;;;;4973797;28;20963;-78
2020/12/21 04:52:51;;;;;;;1.23;0.70;;;8.20;99.90;;;;;;4972194;28;20983;-78
2020/12/21 04:55:22;;;;;;;1.60;0.80;;;6.50;99.90;;;;;;4974274;28;20590;-77
2020/12/21 04:57:58;;;;;;;2.70;1.10;;;7.20;99.90;;;;;;4974534;28;20389;-78
2020/12/21 05:00:26;;;;;;;2.78;1.05;;;6.40;99.90;;;;;;4973586;28;20790;-78
2020/12/21 05:02:52;;;;;;;1.50;0.90;;;6.90;99.90;;;;;;4974477;28;20481;-78
2020/12/21 05:05:31;;;;;;;1.75;1.10;;;8.30;99.90;;;;;;4974231;28;20422;-78
2020/12/21 05:07:58;;;;;;;1.48;1.05;;;6.20;99.90;;;;;;4989386;28;20475;-78
2020/12/21 05:10:24;;;;;;;2.60;1.13;;;6.20;99.90;;;;;;4973182;28;20422;-78
2020/12/21 05:13:02;;;;;;;3.20;1.00;;;7.30;99.90;;;;;;4989135;28;20483;-77
2020/12/21 05:15:28;;;;;;;2.67;1.30;;;7.00;99.90;;;;;;4973407;28;20471;-78
2020/12/21 05:18:29;;;;;;;2.00;1.30;;;6.10;99.90;;;;;;4974269;28;20475;-78
2020/12/21 05:21:07;;;;;;;1.95;1.10;;;6.40;99.90;;;;;;4976820;28;20415;-78
2020/12/21 05:23:34;;;;;;;2.30;1.40;;;6.30;99.90;;;;;;4973401;28;20424;-77
2020/12/21 05:26:05;;;;;;;2.40;1.17;;;6.40;99.90;;;;;;4974023;28;20384;-78
2020/12/21 05:28:36;;;;;;;1.30;0.90;;;6.00;99.90;;;;;;4988051;28;20408;-78
2020/12/21 05:31:04;;;;;;;1.70;1.00;;;6.40;99.90;;;;;;4965735;28;20433;-78
2020/12/21 05:33:31;;;;;;;0.90;0.70;;;7.60;99.90;;;;;;4953607;28;20473;-78
2020/12/21 05:36:04;;;;;;;2.10;1.17;;;8.10;99.90;;;;;;4954241;28;20456;-78
2020/12/21 05:38:30;;;;;;;1.27;1.17;;;7.40;99.90;;;;;;4968706;28;20393;-78
2020/12/21 05:41:16;;;;;;;2.73;0.80;;;6.00;99.90;;;;;;4954263;28;20477;-78
2020/12/21 05:43:44;;;;;;;7.07;1.30;;;7.20;99.90;;;;;;4953445;28;20398;-78
2020/12/21 05:46:14;;;;;;;2.10;1.00;;;7.60;99.90;;;;;;4952135;28;20441;-79
2020/12/21 05:48:43;;;;;;;1.80;1.08;;;6.30;99.90;;;;;;4953477;28;20394;-78
2020/12/21 05:51:11;;;;;;;2.55;0.90;;;7.60;99.90;;;;;;4954121;28;20856;-79
2020/12/21 05:53:39;;;;;;;3.50;1.20;;;6.00;99.90;;;;;;4953478;28;20393;-78
2020/12/21 05:56:05;;;;;;;1.40;1.10;;;7.30;99.90;;;;;;4953747;28;20394;-78
2020/12/21 05:58:33;;;;;;;1.95;1.30;;;6.20;99.90;;;;;;4953336;28;20416;-78
2020/12/21 06:01:04;;;;;;;2.90;1.40;;;6.10;99.90;;;;;;4954029;28;20440;-78
2020/12/21 06:03:50;;;;;;;2.92;1.20;;;6.10;99.90;;;;;;4953032;28;20759;-77
2020/12/21 06:06:30;;;;;;;1.52;1.20;;;6.20;99.90;;;;;;4953753;28;20444;-77
2020/12/21 06:08:58;;;;;;;3.30;1.10;;;6.00;99.90;;;;;;4953959;28;20720;-77
2020/12/21 06:11:31;;;;;;;1.85;0.93;;;6.10;99.90;;;;;;4953759;28;20469;-77
2020/12/21 06:14:05;;;;;;;4.93;1.20;;;6.80;99.90;;;;;;4953600;28;20453;-77
2020/12/21 06:16:32;;;;;;;2.20;1.17;;;7.20;99.90;;;;;;4952868;28;20434;-77
2020/12/21 06:19:06;;;;;;;2.08;0.90;;;6.20;99.90;;;;;;4953735;28;20396;-78
2020/12/21 06:21:37;;;;;;;1.80;0.70;;;6.10;99.90;;;;;;4952739;28;20436;-78
2020/12/21 06:24:14;;;;;;;1.13;1.00;;;6.20;99.90;;;;;;4953697;28;20791;-77
2020/12/21 06:26:40;;;;;;;1.30;1.10;;;6.80;99.90;;;;;;4956310;28;20417;-79
2020/12/21 06:29:09;;;;;;;1.40;0.77;;;6.50;99.90;;;;;;4957488;28;20683;-79
2020/12/21 06:31:54;;;;;;;1.42;0.85;;;6.40;99.90;;;;;;4963366;28;20902;-79
2020/12/21 06:34:28;;;;;;;1.60;1.15;;;6.20;99.90;;;;;;4963836;28;20404;-79
2020/12/21 06:37:09;;;;;;;1.42;1.00;;;7.70;99.90;;;;;;4963138;28;20446;-78
2020/12/21 06:39:36;;;;;;;1.70;0.98;;;6.30;99.90;;;;;;4963106;28;20389;-78
2020/12/21 06:42:21;;;;;;;2.17;1.00;;;7.50;99.90;;;;;;4961399;28;20450;-77
2020/12/21 06:44:49;;;;;;;1.50;1.15;;;6.40;99.90;;;;;;4963636;28;20411;-77
2020/12/21 06:47:14;;;;;;;1.42;0.90;;;6.60;99.90;;;;;;4964483;28;20398;-77
2020/12/21 06:49:40;;;;;;;1.20;0.93;;;8.40;99.90;;;;;;4963122;28;20480;-77
2020/12/21 06:52:06;;;;;;;2.03;0.80;;;7.20;99.90;;;;;;4964689;28;20443;-78
2020/12/21 06:54:32;;;;;;;2.00;1.00;;;7.50;99.90;;;;;;4961715;28;20396;-79
2020/12/21 06:56:58;;;;;;;2.53;0.90;;;7.30;99.90;;;;;;4977727;28;20403;-79
2020/12/21 06:59:25;;;;;;;2.85;1.30;;;6.90;99.90;;;;;;4964256;28;20388;-79
2020/12/21 07:01:52;;;;;;;1.13;0.90;;;6.90;99.90;;;;;;4965530;28;20386;-79
2020/12/21 07:04:25;;;;;;;1.60;0.90;;;8.60;99.90;;;;;;4964781;28;20726;-79
2020/12/21 07:06:52;;;;;;;1.17;1.08;;;7.40;99.90;;;;;;4967873;28;20429;-79
2020/12/21 07:09:31;;;;;;;2.53;1.30;;;8.50;99.90;;;;;;4964024;28;20761;-79
2020/12/21 07:12:02;;;;;;;1.80;1.40;;;7.40;99.90;;;;;;4966685;28;20478;-79
2020/12/21 07:14:29;;;;;;;3.67;2.05;;;6.60;99.90;;;;;;4969213;28;20408;-77
2020/12/21 07:17:22;;;;;;;2.70;2.10;;;6.00;99.90;;;;;;4966817;28;20431;-77
2020/12/21 07:19:47;;;;;;;5.65;1.88;;;6.30;99.90;;;;;;4964891;28;20745;-78
2020/12/21 07:22:13;;;;;;;2.40;1.52;;;7.20;99.90;;;;;;4964473;28;20419;-77
2020/12/21 07:24:41;;;;;;;3.00;1.67;;;7.90;99.90;;;;;;4965237;28;20392;-78
2020/12/21 07:27:07;;;;;;;3.83;1.52;;;7.50;99.90;;;;;;4964426;28;20385;-78
2020/12/21 07:29:34;;;;;;;1.40;1.30;;;7.80;99.90;;;;;;4964726;28;20403;-77
2020/12/21 07:32:01;;;;;;;1.40;1.27;;;6.60;99.90;;;;;;4965079;28;20903;-78
2020/12/21 07:34:27;;;;;;;3.95;1.52;;;6.90;99.90;;;;;;4963710;28;20751;-78
2020/12/21 07:36:53;;;;;;;2.58;1.25;;;6.60;99.90;;;;;;4965435;28;20412;-78
2020/12/21 07:39:20;;;;;;;1.20;1.00;;;7.20;99.90;;;;;;4963491;28;20400;-78
2020/12/21 07:41:53;;;;;;;2.72;1.10;;;6.70;99.90;;;;;;4965411;28;21782;-78
2020/12/21 07:44:36;;;;;;;2.50;1.70;;;6.80;99.90;;;;;;4966455;28;20393;-78
2020/12/21 07:47:07;;;;;;;1.80;1.30;;;6.60;99.90;;;;;;4963224;28;20874;-79
2020/12/21 07:49:34;;;;;;;1.60;1.20;;;6.70;99.90;;;;;;4964953;28;20396;-78
2020/12/21 07:52:03;;;;;;;1.60;1.30;;;7.30;99.90;;;;;;4962611;28;20917;-78
2020/12/21 07:54:40;;;;;;;1.45;1.00;;;6.60;99.90;;;;;;4964445;28;20479;-78
2020/12/21 07:57:06;;;;;;;1.77;1.27;;;6.70;99.90;;;;;;4963792;28;20398;-78
2020/12/21 07:59:33;;;;;;;2.30;1.40;;;6.60;99.90;;;;;;4963629;28;20479;-78
2020/12/21 08:02:03;;;;;;;2.00;1.52;;;6.60;99.90;;;;;;4965041;28;20446;-79
2020/12/21 08:04:29;;;;;;;1.75;1.30;;;8.80;99.90;;;;;;4960601;28;20387;-78
2020/12/21 08:07:12;;;;;;;2.60;1.23;;;9.00;99.90;;;;;;4960115;28;20432;-79
2020/12/21 08:09:39;;;;;;;2.00;0.80;;;7.40;99.90;;;;;;4976737;28;20376;-78
2020/12/21 08:12:16;;;;;;;2.08;1.20;;;7.00;99.90;;;;;;4965605;28;20787;-80
2020/12/21 08:14:43;;;;;;;2.88;1.40;;;8.70;99.90;;;;;;4965088;28;20409;-80
2020/12/21 08:17:17;;;;;;;4.20;1.60;;;8.10;99.90;;;;;;4968931;28;20384;-80
2020/12/21 08:19:51;;;;;;;2.00;1.20;;;8.70;99.90;;;;;;4968235;28;20483;-80
2020/12/21 08:22:20;;;;;;;2.88;1.40;;;8.20;99.90;;;;;;4969385;28;20437;-79
2020/12/21 08:24:57;;;;;;;2.00;1.30;;;8.00;99.90;;;;;;4968381;28;20395;-79
2020/12/21 08:27:24;;;;;;;1.55;1.38;;;7.30;99.90;;;;;;4984567;28;20397;-78
2020/12/21 08:29:50;;;;;;;2.35;1.50;;;6.60;99.90;;;;;;4967124;28;20426;-79
2020/12/21 08:32:16;;;;;;;2.60;2.10;;;8.40;99.90;;;;;;4967119;28;20458;-80
2020/12/21 08:34:42;;;;;;;3.15;2.55;;;8.50;99.90;;;;;;4968865;28;20794;-79
2020/12/21 08:37:07;;;;;;;3.90;2.25;;;7.10;99.90;;;;;;4964917;28;20409;-79
2020/12/21 08:39:33;;;;;;;2.65;1.98;;;7.10;99.90;;;;;;4969794;28;20411;-79
2020/12/21 08:41:59;;;;;;;1.83;1.73;;;6.80;99.90;;;;;;4967655;28;20398;-79
2020/12/21 08:44:27;;;;;;;2.30;1.90;;;6.90;99.90;;;;;;4969455;28;20425;-79
2020/12/21 08:47:00;;;;;;;3.63;2.30;;;7.70;99.90;;;;;;4965483;28;20384;-79
2020/12/21 08:49:28;;;;;;;3.03;2.45;;;8.80;99.90;;;;;;4969552;28;20735;-79
2020/12/21 08:52:01;;;;;;;2.30;2.10;;;7.20;99.90;;;;;;4966793;28;20415;-79
2020/12/21 08:54:27;;;;;;;3.58;2.72;;;7.10;99.90;;;;;;4970115;28;20480;-79
2020/12/21 08:56:53;;;;;;;3.00;2.15;;;7.20;99.90;;;;;;4967077;28;20392;-79
2020/12/21 08:59:19;;;;;;;2.92;2.35;;;7.20;99.90;;;;;;4967028;28;20404;-79
2020/12/21 09:01:45;;;;;;;3.33;2.20;;;7.10;99.90;;;;;;4970482;28;20500;-78
2020/12/21 09:04:12;;;;;;;3.00;2.40;;;8.00;99.90;;;;;;4972791;28;20418;-78
2020/12/21 09:06:38;;;;;;;2.70;1.90;;;6.50;99.90;;;;;;4972750;28;20944;-78
2020/12/21 09:09:08;;;;;;;2.70;2.08;;;7.70;99.90;;;;;;4972663;28;20389;-78
2020/12/21 09:11:34;;;;;;;2.65;1.83;;;7.40;99.90;;;;;;4971571;28;20902;-79
2020/12/21 09:14:00;;;;;;;2.70;1.80;;;7.50;99.90;;;;;;4972189;28;20975;-75
2020/12/21 09:16:27;;;;;;;2.07;1.40;;;7.10;99.90;;;;;;4972546;28;20467;-74
2020/12/21 09:18:54;;;;;;;1.63;1.40;;;8.50;99.90;;;;;;4972282;28;20520;-79
2020/12/21 09:21:28;;;;;;;1.40;1.30;;;7.80;99.90;;;;;;4972921;28;20385;-80
2020/12/21 09:23:56;;;;;;;2.00;1.10;;;7.40;99.90;;;;;;4971523;28;20408;-81
2020/12/21 09:26:23;;;;;;;2.40;1.40;;;7.70;99.90;;;;;;4973556;28;20388;-80
2020/12/21 09:28:50;;;;;;;4.40;1.30;;;8.40;99.90;;;;;;4973095;28;20392;-80
2020/12/21 09:31:17;;;;;;;2.35;1.40;;;7.50;99.90;;;;;;4973402;28;20416;-80
2020/12/21 09:33:44;;;;;;;1.33;1.23;;;8.10;99.90;;;;;;4971108;28;20524;-80
2020/12/21 09:36:10;;;;;;;1.67;1.17;;;8.20;99.90;;;;;;4971507;28;20427;-80
2020/12/21 09:38:37;;;;;;;1.77;1.20;;;7.70;99.90;;;;;;4972751;28;20853;-80
2020/12/21 09:41:04;;;;;;;1.85;1.27;;;7.80;99.90;;;;;;4970617;28;20408;-80
2020/12/21 09:43:30;;;;;;;2.70;1.20;;;7.90;99.90;;;;;;4972388;28;20395;-80
2020/12/21 09:45:56;;;;;;;2.03;1.20;;;7.90;99.90;;;;;;4971764;28;20395;-80
2020/12/21 09:48:22;;;;;;;3.50;1.30;;;8.50;99.90;;;;;;4972769;28;20393;-81
2020/12/21 09:50:48;;;;;;;1.27;1.07;;;8.30;99.90;;;;;;4971896;28;20424;-80
2020/12/21 09:53:14;;;;;;;1.90;1.40;;;8.20;99.90;;;;;;4972871;28;20392;-80
2020/12/21 09:55:41;;;;;;;3.17;1.50;;;8.10;99.90;;;;;;4972055;28;20388;-80
2020/12/21 09:58:06;;;;;;;2.92;1.45;;;8.30;99.90;;;;;;4971992;28;20388;-82
2020/12/21 10:00:32;;;;;;;1.63;1.50;;;8.70;99.90;;;;;;4972104;28;20404;-78
2020/12/21 10:02:58;;;;;;;2.50;1.53;;;8.20;99.90;;;;;;4970242;28;20483;-77
2020/12/21 10:05:23;;;;;;;2.50;1.13;;;8.60;99.90;;;;;;4971813;28;20395;-78
2020/12/21 10:07:49;;;;;;;1.40;1.30;;;8.40;99.90;;;;;;4971350;28;20761;-78
2020/12/21 10:10:15;;;;;;;4.00;1.90;;;8.40;99.90;;;;;;4971606;28;20431;-79
2020/12/21 10:12:41;;;;;;;2.70;1.80;;;8.20;99.90;;;;;;4958277;28;20402;-84
2020/12/21 10:15:07;;;;;;;2.80;2.13;;;8.50;99.90;;;;;;4952644;28;20397;-75
2020/12/21 10:17:33;;;;;;;2.63;2.03;;;8.60;99.90;;;;;;4963130;28;20468;-75
2020/12/21 10:19:58;;;;;;;3.35;2.20;;;8.50;99.90;;;;;;4971485;28;20432;-75
2020/12/21 10:22:24;;;;;;;3.70;2.40;;;8.40;99.90;;;;;;4972296;28;20392;-75
2020/12/21 10:24:50;;;;;;;3.35;2.15;;;8.80;99.90;;;;;;4959552;28;20405;-75
2020/12/21 10:27:15;;;;;;;3.55;2.70;;;8.30;99.90;;;;;;4952022;28;20396;-75
2020/12/21 10:29:41;;;;;;;4.03;2.70;;;8.80;99.90;;;;;;4959111;28;20428;-82
2020/12/21 10:32:07;;;;;;;3.92;2.35;;;8.30;99.90;;;;;;4976363;28;20726;-77
2020/12/21 10:34:33;;;;;;;2.60;2.40;;;9.00;99.90;;;;;;4960723;28;20447;-77
2020/12/21 10:36:59;;;;;;;3.20;2.17;;;9.50;99.90;;;;;;4960127;28;20412;-73
2020/12/21 10:39:24;;;;;;;3.23;2.30;;;8.80;99.90;;;;;;4957129;28;20473;-73
2020/12/21 10:41:50;;;;;;;3.00;2.33;;;8.80;99.90;;;;;;4962152;28;20819;-74
2020/12/21 10:44:16;;;;;;;3.47;2.67;;;9.30;99.90;;;;;;4960839;28;20384;-76
2020/12/21 10:46:42;;;;;;;3.97;2.60;;;8.30;99.90;;;;;;4960918;28;20390;-81
2020/12/21 10:49:08;;;;;;;3.63;3.00;;;9.10;99.90;;;;;;4962868;28;20390;-75
2020/12/21 10:51:35;;;;;;;3.45;2.53;;;8.20;99.90;;;;;;4961032;28;20424;-76
2020/12/21 10:54:01;;;;;;;3.78;2.70;;;8.00;99.90;;;;;;4963186;28;20384;-76
2020/12/21 10:56:28;;;;;;;4.35;2.90;;;8.00;99.90;;;;;;4959421;28;20397;-76
2020/12/21 10:58:54;;;;;;;3.55;2.55;;;8.60;99.90;;;;;;4961839;28;20393;-76
2020/12/21 11:01:20;;;;;;;3.67;2.92;;;9.30;99.90;;;;;;4962908;28;20793;-77
2020/12/21 11:03:46;;;;;;;7.53;3.20;;;8.50;99.90;;;;;;4959235;28;20446;-79
2020/12/21 11:06:18;;;;;;;3.70;3.00;;;8.10;99.90;;;;;;4964428;28;20882;-80
2020/12/21 11:08:43;;;;;;;3.38;3.00;;;9.50;99.90;;;;;;4952494;29;20426;-80
2020/12/21 11:11:09;;;;;;;3.42;2.53;;;9.80;99.90;;;;;;4959858;28;20439;-81
2020/12/21 11:13:37;;;;;;;2.80;2.45;;;8.20;99.90;;;;;;4961993;28;20402;-81
2020/12/21 11:16:04;;;;;;;2.50;2.30;;;8.40;99.90;;;;;;4965655;28;20403;-80
2020/12/21 11:18:29;;;;;;;3.58;2.90;;;8.10;99.90;;;;;;4956089;28;20401;-80
2020/12/21 11:20:57;;;;;;;4.23;3.00;;;8.30;99.90;;;;;;4966892;28;20393;-79
2020/12/21 11:23:23;;;;;;;3.17;2.67;;;8.50;99.90;;;;;;4960787;28;20396;-80
2020/12/21 11:25:48;;;;;;;3.70;2.53;;;8.60;99.90;;;;;;4959520;28;20416;-80
2020/12/21 11:28:14;;;;;;;2.50;2.30;;;10.10;99.90;;;;;;4979752;28;20428;-80
2020/12/21 11:30:40;;;;;;;2.90;2.60;;;8.80;99.90;;;;;;4965171;28;20415;-79
2020/12/21 11:33:05;;;;;;;2.90;1.90;;;8.80;99.90;;;;;;4959493;28;20386;-80
2020/12/21 11:35:31;;;;;;;2.63;2.10;;;9.00;99.90;;;;;;4959135;28;20428;-80
2020/12/21 11:37:57;;;;;;;4.07;1.80;;;10.00;99.90;;;;;;4962491;28;20793;-81
2020/12/21 11:40:22;;;;;;;1.93;1.60;;;9.60;99.90;;;;;;4963667;28;20446;-80
2020/12/21 11:42:48;;;;;;;2.63;1.60;;;10.10;99.90;;;;;;4959460;28;20411;-78
2020/12/21 11:45:14;;;;;;;2.47;1.37;;;10.00;99.90;;;;;;4965434;28;20425;-79
2020/12/21 11:47:40;;;;;;;2.60;1.50;;;10.40;99.90;;;;;;4959382;28;20433;-79
2020/12/21 11:50:07;;;;;;;2.10;1.80;;;10.30;99.90;;;;;;4958911;28;20416;-81
2020/12/21 11:52:32;;;;;;;3.85;1.30;;;10.20;99.90;;;;;;4956245;28;20829;-80
2020/12/21 11:54:58;;;;;;;2.55;1.30;;;10.50;99.90;;;;;;4952596;28;20408;-81
2020/12/21 11:57:26;;;;;;;2.65;1.30;;;10.40;99.90;;;;;;4957057;28;20396;-80
2020/12/21 11:59:53;;;;;;;1.60;1.30;;;11.00;99.90;;;;;;4955822;28;20849;-80
2020/12/21 12:02:19;;;;;;;1.67;1.50;;;10.30;99.90;;;;;;4953819;28;20398;-81
2020/12/21 12:04:46;;;;;;;3.90;1.40;;;10.70;99.90;;;;;;4954798;28;20470;-80
2020/12/21 12:07:13;;;;;;;2.20;1.50;;;10.90;99.90;;;;;;4954599;28;20507;-81
2020/12/21 12:09:40;;;;;;;2.95;1.35;;;11.00;99.90;;;;;;4967696;28;20416;-80
2020/12/21 12:12:05;;;;;;;1.80;1.08;;;11.00;99.90;;;;;;4950917;28;21085;-80
2020/12/21 12:14:31;;;;;;;1.20;1.10;;;11.50;99.90;;;;;;4957155;28;20392;-80
2020/12/21 12:16:57;;;;;;;1.20;1.10;;;11.70;99.90;;;;;;4951853;28;20410;-79
2020/12/21 12:19:24;;;;;;;2.60;1.20;;;10.90;99.90;;;;;;4957543;28;20464;-81
2020/12/21 12:21:51;;;;;;;1.70;1.20;;;11.50;99.90;;;;;;4955885;28;20807;-79
2020/12/21 12:24:17;;;;;;;1.50;1.08;;;10.70;99.90;;;;;;4952717;28;20394;-80
2020/12/21 12:26:43;;;;;;;1.20;1.10;;;11.00;99.90;;;;;;4956329;28;20414;-80
2020/12/21 12:29:09;;;;;;;1.10;0.98;;;10.60;99.90;;;;;;4957430;28;20484;-81
2020/12/21 12:31:35;;;;;;;1.40;0.80;;;10.60;99.90;;;;;;4952711;28;20421;-80
2020/12/21 12:34:00;;;;;;;1.60;1.10;;;11.80;99.90;;;;;;4952593;28;20405;-80
2020/12/21 12:36:27;;;;;;;1.00;0.90;;;12.70;99.90;;;;;;4955303;28;20438;-81
2020/12/21 12:38:54;;;;;;;1.15;1.05;;;10.80;99.90;;;;;;4954757;28;20445;-80
2020/12/21 12:41:20;;;;;;;1.10;0.80;;;10.70;99.90;;;;;;4953415;28;20424;-79
2020/12/21 12:43:46;;;;;;;1.23;0.90;;;10.60;99.90;;;;;;4954980;28;20405;-80
2020/12/21 12:46:12;;;;;;;1.90;1.70;;;10.20;99.90;;;;;;4954584;28;20477;-80
2020/12/21 12:48:38;;;;;;;2.58;1.50;;;10.70;99.90;;;;;;4950135;28;20809;-80
2020/12/21 12:51:04;;;;;;;3.40;1.70;;;10.60;99.90;;;;;;4954031;28;20935;-80
2020/12/21 12:53:30;;;;;;;3.20;2.00;;;10.80;99.90;;;;;;4956151;28;20750;-81
2020/12/21 12:55:55;;;;;;;2.78;2.30;;;9.80;99.90;;;;;;4951843;28;20398;-80
2020/12/21 12:58:22;;;;;;;2.95;2.05;;;10.90;99.90;;;;;;4956538;28;20425;-80